createdAt,value
2017-02-01T00:00:30.118Z,2.69
2017-02-01T00:01:10.614Z,2.68
2017-02-01T00:01:51.026Z,2.65
2017-02-01T00:02:31.492Z,2.64
2017-02-01T00:03:11.936Z,2.55
2017-02-01T00:03:52.370Z,2.72
2017-02-01T00:04:32.824Z,2.7
2017-02-01T00:05:13.328Z,2.64
2017-02-01T00:05:53.753Z,2.7
2017-02-01T00:06:34.217Z,2.7
2017-02-01T00:07:14.638Z,2.65
2017-02-01T00:07:55.102Z,2.57
2017-02-01T00:08:35.564Z,2.61
2017-02-01T00:09:16.064Z,2.61
2017-02-01T00:09:56.541Z,2.69
2017-02-01T00:10:36.939Z,2.72
2017-02-01T00:11:17.405Z,2.68
2017-02-01T00:11:57.869Z,2.64
2017-02-01T00:12:38.281Z,2.75
2017-02-01T00:13:18.725Z,2.75
2017-02-01T00:13:59.253Z,2.65
2017-02-01T00:14:39.693Z,2.68
2017-02-01T00:15:20.110Z,2.68
2017-02-01T00:16:00.589Z,2.65
2017-02-01T00:16:41.048Z,2.69
2017-02-01T00:17:21.488Z,2.69
2017-02-01T00:18:01.924Z,2.7
2017-02-01T00:18:42.414Z,2.65
2017-02-01T00:19:22.868Z,2.72
2017-02-01T00:20:03.347Z,2.69
2017-02-01T00:20:43.805Z,2.72
2017-02-01T00:21:24.264Z,2.69
2017-02-01T00:22:04.709Z,2.65
2017-02-01T00:22:45.165Z,2.68
2017-02-01T00:23:25.623Z,2.7
2017-02-01T00:24:06.060Z,2.65
2017-02-01T00:24:46.508Z,2.7
2017-02-01T00:26:24.108Z,2.68
2017-02-01T00:27:04.556Z,2.69
2017-02-01T00:27:45.019Z,2.68
2017-02-01T00:28:25.514Z,2.69
2017-02-01T00:29:05.960Z,2.75
2017-02-01T00:29:46.434Z,2.64
2017-02-01T00:30:26.891Z,2.7
2017-02-01T00:31:07.368Z,2.64
2017-02-01T00:31:47.874Z,2.72
2017-02-01T00:32:28.329Z,2.64
2017-02-01T00:33:08.796Z,2.65
2017-02-01T00:33:49.254Z,2.69
2017-02-01T00:34:29.722Z,2.68
2017-02-01T00:35:10.155Z,2.68
2017-02-01T00:35:50.617Z,2.65
2017-02-01T00:36:31.079Z,2.65
2017-02-01T00:37:11.533Z,2.68
2017-02-01T00:37:51.984Z,2.75
2017-02-01T00:38:32.470Z,2.68
2017-02-01T00:39:12.899Z,2.62
2017-02-01T00:39:53.339Z,2.65
2017-02-01T00:40:33.783Z,2.69
2017-02-01T00:41:14.290Z,2.69
2017-02-01T00:41:55.624Z,2.65
2017-02-01T00:42:36.079Z,2.62
2017-02-01T00:43:16.549Z,2.68
2017-02-01T00:43:56.979Z,2.57
2017-02-01T00:44:37.420Z,2.57
2017-02-01T00:45:17.860Z,2.54
2017-02-01T00:45:58.286Z,2.58
2017-02-01T00:46:38.762Z,2.61
2017-02-01T00:47:19.189Z,2.62
2017-02-01T00:47:59.640Z,2.55
2017-02-01T00:48:40.087Z,2.57
2017-02-01T00:49:20.520Z,2.54
2017-02-01T00:50:00.966Z,2.52
2017-02-01T00:50:41.429Z,2.59
2017-02-01T00:51:21.907Z,2.51
2017-02-01T00:52:02.370Z,2.57
2017-02-01T00:52:42.829Z,2.59
2017-02-01T00:53:23.302Z,2.62
2017-02-01T00:54:03.747Z,2.52
2017-02-01T00:54:44.195Z,2.54
2017-02-01T00:55:24.631Z,2.62
2017-02-01T00:56:05.098Z,2.62
2017-02-01T00:56:45.552Z,2.58
2017-02-01T00:57:26.031Z,2.64
2017-02-01T00:58:06.441Z,2.59
2017-02-01T00:58:46.909Z,2.59
2017-02-01T00:59:27.369Z,2.52
2017-02-01T01:00:07.863Z,2.64
2017-02-01T01:00:48.329Z,2.64
2017-02-01T01:01:28.837Z,2.7
2017-02-01T01:02:09.289Z,2.65
2017-02-01T01:02:49.708Z,2.69
2017-02-01T01:03:30.167Z,2.61
2017-02-01T01:04:10.591Z,2.69
2017-02-01T01:04:51.037Z,2.73
2017-02-01T01:05:31.518Z,2.72
2017-02-01T01:06:11.964Z,2.7
2017-02-01T01:06:52.432Z,2.68
2017-02-01T01:07:32.912Z,2.72
2017-02-01T01:08:13.373Z,2.7
2017-02-01T01:08:53.815Z,2.73
2017-02-01T01:09:34.277Z,2.79
2017-02-01T01:10:14.727Z,2.65
2017-02-01T01:10:55.164Z,2.75
2017-02-01T01:11:35.621Z,2.68
2017-02-01T01:12:16.065Z,2.75
2017-02-01T01:12:56.542Z,2.76
2017-02-01T01:13:36.999Z,2.77
2017-02-01T01:14:17.550Z,2.68
2017-02-01T01:14:58.009Z,2.75
2017-02-01T01:15:38.465Z,2.73
2017-02-01T01:16:18.922Z,2.68
2017-02-01T01:16:59.396Z,2.76
2017-02-01T01:17:40.803Z,2.75
2017-02-01T01:18:21.267Z,2.79
2017-02-01T01:19:01.699Z,2.72
2017-02-01T01:19:42.128Z,2.72
2017-02-01T01:20:22.596Z,2.75
2017-02-01T01:21:03.037Z,2.76
2017-02-01T01:21:43.487Z,2.7
2017-02-01T01:22:23.963Z,2.82
2017-02-01T01:23:04.415Z,2.75
2017-02-01T01:23:44.880Z,2.7
2017-02-01T01:24:25.349Z,2.68
2017-02-01T01:25:05.785Z,2.72
2017-02-01T01:25:46.247Z,2.68
2017-02-01T01:26:26.686Z,2.76
2017-02-01T01:27:07.120Z,2.79
2017-02-01T01:27:47.562Z,2.69
2017-02-01T01:28:28.031Z,2.72
2017-02-01T01:29:08.522Z,2.72
2017-02-01T01:29:48.968Z,2.73
2017-02-01T01:30:29.439Z,2.64
2017-02-01T01:31:09.907Z,2.72
2017-02-01T01:31:50.326Z,2.72
2017-02-01T01:32:30.783Z,2.62
2017-02-01T01:33:11.233Z,2.7
2017-02-01T01:33:51.670Z,2.7
2017-02-01T01:34:32.145Z,2.64
2017-02-01T01:35:12.578Z,2.7
2017-02-01T01:35:53.066Z,2.68
2017-02-01T01:36:33.505Z,2.64
2017-02-01T01:37:13.944Z,2.7
2017-02-01T01:37:54.412Z,2.73
2017-02-01T01:38:34.856Z,2.72
2017-02-01T01:39:15.298Z,2.65
2017-02-01T01:39:55.746Z,2.69
2017-02-01T01:40:36.213Z,2.69
2017-02-01T01:41:16.654Z,2.68
2017-02-01T01:41:57.093Z,2.65
2017-02-01T01:42:37.573Z,2.69
2017-02-01T01:43:18.005Z,2.65
2017-02-01T01:43:58.429Z,2.62
2017-02-01T01:44:38.920Z,2.72
2017-02-01T01:45:19.334Z,2.76
2017-02-01T01:45:59.813Z,2.64
2017-02-01T01:46:40.255Z,2.62
2017-02-01T01:47:20.713Z,2.62
2017-02-01T01:48:01.172Z,2.7
2017-02-01T01:48:41.598Z,2.64
2017-02-01T01:49:22.023Z,2.68
2017-02-01T01:50:02.453Z,2.75
2017-02-01T01:50:42.920Z,2.72
2017-02-01T01:51:23.362Z,2.7
2017-02-01T01:52:03.837Z,2.64
2017-02-01T01:52:44.233Z,2.77
2017-02-01T01:53:24.726Z,2.7
2017-02-01T01:54:05.209Z,2.75
2017-02-01T01:54:45.677Z,2.75
2017-02-01T01:55:26.154Z,2.68
2017-02-01T01:56:06.600Z,2.73
2017-02-01T01:56:47.066Z,2.61
2017-02-01T01:57:27.475Z,2.64
2017-02-01T01:58:07.968Z,2.69
2017-02-01T01:58:48.378Z,2.7
2017-02-01T01:59:28.853Z,2.7
2017-02-01T02:00:09.323Z,2.68
2017-02-01T02:00:49.802Z,2.7
2017-02-01T02:01:30.255Z,2.65
2017-02-01T02:02:10.743Z,2.62
2017-02-01T02:02:51.192Z,2.75
2017-02-01T02:03:31.639Z,2.64
2017-02-01T02:04:12.100Z,2.64
2017-02-01T02:04:52.540Z,2.68
2017-02-01T02:05:33.002Z,2.68
2017-02-01T02:06:13.471Z,2.73
2017-02-01T02:06:53.912Z,2.68
2017-02-01T02:07:34.353Z,2.7
2017-02-01T02:08:14.849Z,2.61
2017-02-01T02:08:55.269Z,2.62
2017-02-01T02:09:35.743Z,2.73
2017-02-01T02:10:16.189Z,2.72
2017-02-01T02:12:03.883Z,2.68
2017-02-01T02:12:44.367Z,2.68
2017-02-01T02:13:24.786Z,2.64
2017-02-01T02:14:05.237Z,2.76
2017-02-01T02:14:45.707Z,2.72
2017-02-01T02:15:26.210Z,2.72
2017-02-01T02:16:06.625Z,2.65
2017-02-01T02:16:47.103Z,2.69
2017-02-01T02:17:27.546Z,2.65
2017-02-01T02:18:07.988Z,2.7
2017-02-01T02:18:48.436Z,2.75
2017-02-01T02:19:28.905Z,2.77
2017-02-01T02:20:09.336Z,2.75
2017-02-01T02:20:49.822Z,2.68
2017-02-01T02:21:30.278Z,2.76
2017-02-01T02:22:10.697Z,2.76
2017-02-01T02:22:51.202Z,2.72
2017-02-01T02:23:31.642Z,2.73
2017-02-01T02:24:12.078Z,2.77
2017-02-01T02:24:52.595Z,2.73
2017-02-01T02:25:33.004Z,2.68
2017-02-01T02:26:13.457Z,2.7
2017-02-01T02:26:53.900Z,2.72
2017-02-01T02:27:34.344Z,2.68
2017-02-01T02:28:14.790Z,2.69
2017-02-01T02:28:55.258Z,2.68
2017-02-01T02:29:35.698Z,2.69
2017-02-01T02:30:16.156Z,2.65
2017-02-01T02:30:56.598Z,2.73
2017-02-01T02:31:37.032Z,2.64
2017-02-01T02:32:17.646Z,2.55
2017-02-01T02:32:58.076Z,2.59
2017-02-01T02:33:38.505Z,2.52
2017-02-01T02:34:18.976Z,2.55
2017-02-01T02:34:59.403Z,2.55
2017-02-01T02:35:39.836Z,2.5
2017-02-01T02:36:20.298Z,2.57
2017-02-01T02:37:00.743Z,2.5
2017-02-01T02:37:41.193Z,2.52
2017-02-01T02:38:21.675Z,2.5
2017-02-01T02:39:02.102Z,2.55
2017-02-01T02:39:42.556Z,2.47
2017-02-01T02:40:23.029Z,2.37
2017-02-01T02:41:03.451Z,2.52
2017-02-01T02:41:43.911Z,2.55
2017-02-01T02:42:24.346Z,2.5
2017-02-01T02:43:04.805Z,2.43
2017-02-01T02:43:45.261Z,2.46
2017-02-01T02:44:25.746Z,2.47
2017-02-01T02:45:06.184Z,2.44
2017-02-01T02:45:46.608Z,2.54
2017-02-01T02:46:27.050Z,2.51
2017-02-01T02:47:07.543Z,2.47
2017-02-01T02:47:48.021Z,2.52
2017-02-01T02:48:28.493Z,2.57
2017-02-01T02:49:08.948Z,2.51
2017-02-01T02:49:49.386Z,2.58
2017-02-01T02:50:29.848Z,2.39
2017-02-01T02:51:10.339Z,2.47
2017-02-01T02:51:50.769Z,2.36
2017-02-01T02:53:43.380Z,2.52
2017-02-01T02:54:23.839Z,2.5
2017-02-01T02:55:04.324Z,2.52
2017-02-01T02:55:44.769Z,2.51
2017-02-01T02:56:25.224Z,2.52
2017-02-01T02:57:05.666Z,2.51
2017-02-01T02:57:46.150Z,2.51
2017-02-01T02:58:26.617Z,2.52
2017-02-01T02:59:07.026Z,2.5
2017-02-01T02:59:47.476Z,2.51
2017-02-01T03:00:27.918Z,2.5
2017-02-01T03:01:08.384Z,2.57
2017-02-01T03:01:48.836Z,2.64
2017-02-01T03:02:29.322Z,2.52
2017-02-01T03:03:09.801Z,2.68
2017-02-01T03:03:50.244Z,2.46
2017-02-01T03:04:30.701Z,2.51
2017-02-01T03:05:11.120Z,2.47
2017-02-01T03:05:51.564Z,2.51
2017-02-01T03:06:32.036Z,2.51
2017-02-01T03:07:12.500Z,2.54
2017-02-01T03:07:52.973Z,2.51
2017-02-01T03:08:33.449Z,2.43
2017-02-01T03:09:13.921Z,2.44
2017-02-01T03:09:54.334Z,2.55
2017-02-01T03:10:34.827Z,2.55
2017-02-01T03:11:15.302Z,2.46
2017-02-01T03:11:55.777Z,2.55
2017-02-01T03:12:36.243Z,2.55
2017-02-01T03:13:16.675Z,2.52
2017-02-01T03:13:57.141Z,2.57
2017-02-01T03:14:37.592Z,2.58
2017-02-01T03:15:18.041Z,2.5
2017-02-01T03:15:58.482Z,2.5
2017-02-01T03:16:38.917Z,2.54
2017-02-01T03:17:19.399Z,2.57
2017-02-01T03:17:59.881Z,2.59
2017-02-01T03:20:12.893Z,2.62
2017-02-01T03:20:53.204Z,2.58
2017-02-01T03:21:33.652Z,2.59
2017-02-01T03:22:14.126Z,2.55
2017-02-01T03:22:54.587Z,2.54
2017-02-01T03:23:35.044Z,2.46
2017-02-01T03:24:15.502Z,2.57
2017-02-01T03:24:55.951Z,2.47
2017-02-01T03:25:36.468Z,2.36
2017-02-01T03:26:16.890Z,2.5
2017-02-01T03:26:57.341Z,2.47
2017-02-01T03:27:37.783Z,2.46
2017-02-01T03:28:18.225Z,2.55
2017-02-01T03:28:58.671Z,2.55
2017-02-01T03:29:39.138Z,2.4
2017-02-01T03:30:19.601Z,2.4
2017-02-01T03:31:00.057Z,2.55
2017-02-01T03:31:40.509Z,2.44
2017-02-01T03:32:20.969Z,2.4
2017-02-01T03:33:01.419Z,2.41
2017-02-01T03:33:41.862Z,2.41
2017-02-01T03:34:22.322Z,2.37
2017-02-01T03:35:02.766Z,2.4
2017-02-01T03:35:43.203Z,2.4
2017-02-01T03:36:23.637Z,2.43
2017-02-01T03:37:04.113Z,2.41
2017-02-01T03:37:44.601Z,2.37
2017-02-01T03:38:25.021Z,2.39
2017-02-01T03:39:05.473Z,2.43
2017-02-01T03:39:45.950Z,2.43
2017-02-01T03:40:26.381Z,2.41
2017-02-01T03:41:06.846Z,2.47
2017-02-01T03:41:47.331Z,2.47
2017-02-01T03:42:27.805Z,2.43
2017-02-01T03:43:08.225Z,2.44
2017-02-01T03:43:48.660Z,2.43
2017-02-01T03:44:29.103Z,2.44
2017-02-01T03:45:09.555Z,2.43
2017-02-01T03:45:49.991Z,2.44
2017-02-01T03:46:30.506Z,2.44
2017-02-01T03:47:10.939Z,2.43
2017-02-01T03:47:51.453Z,2.41
2017-02-01T03:48:31.946Z,2.37
2017-02-01T03:49:12.381Z,2.39
2017-02-01T03:49:52.847Z,2.37
2017-02-01T03:50:33.310Z,2.37
2017-02-01T03:51:13.766Z,2.4
2017-02-01T03:51:54.208Z,2.39
2017-02-01T03:52:34.655Z,2.36
2017-02-01T03:53:15.141Z,2.36
2017-02-01T03:53:55.595Z,2.44
2017-02-01T03:54:36.091Z,2.37
2017-02-01T03:55:16.582Z,2.44
2017-02-01T03:55:57.008Z,2.39
2017-02-01T03:56:37.423Z,2.37
2017-02-01T03:57:17.900Z,2.36
2017-02-01T03:57:58.318Z,2.36
2017-02-01T03:58:38.810Z,2.32
2017-02-01T03:59:19.254Z,2.33
2017-02-01T03:59:59.716Z,2.33
2017-02-01T04:00:40.180Z,2.4
2017-02-01T04:01:20.635Z,2.44
2017-02-01T04:02:01.099Z,2.41
2017-02-01T04:02:41.537Z,2.37
2017-02-01T04:03:21.970Z,2.4
2017-02-01T04:04:02.482Z,2.4
2017-02-01T04:04:42.925Z,2.37
2017-02-01T04:05:23.380Z,2.43
2017-02-01T04:06:03.828Z,2.41
2017-02-01T04:06:44.296Z,2.4
2017-02-01T04:07:24.714Z,2.4
2017-02-01T04:08:05.159Z,2.4
2017-02-01T04:08:45.647Z,2.43
2017-02-01T04:09:26.113Z,2.43
2017-02-01T04:10:06.598Z,2.41
2017-02-01T04:10:47.061Z,2.43
2017-02-01T04:11:28.457Z,2.44
2017-02-01T04:12:09.363Z,2.46
2017-02-01T04:12:49.825Z,2.41
2017-02-01T04:13:30.191Z,2.43
2017-02-01T04:14:10.763Z,2.43
2017-02-01T04:14:51.253Z,2.43
2017-02-01T04:15:31.733Z,2.5
2017-02-01T04:16:12.182Z,2.43
2017-02-01T04:16:52.561Z,2.52
2017-02-01T04:17:33.209Z,2.47
2017-02-01T04:18:13.624Z,2.52
2017-02-01T04:18:54.111Z,2.47
2017-02-01T04:19:34.613Z,2.52
2017-02-01T04:20:15.241Z,2.52
2017-02-01T04:20:55.654Z,2.54
2017-02-01T04:21:36.129Z,2.58
2017-02-01T04:22:16.724Z,2.57
2017-02-01T04:22:57.177Z,2.51
2017-02-01T04:23:37.477Z,2.41
2017-02-01T04:24:18.068Z,2.43
2017-02-01T04:24:58.411Z,2.57
2017-02-01T04:25:38.946Z,2.47
2017-02-01T04:26:19.428Z,2.5
2017-02-01T04:27:01.134Z,2.58
2017-02-01T04:27:41.611Z,2.55
2017-02-01T04:28:22.076Z,2.47
2017-02-01T04:29:02.376Z,2.5
2017-02-01T04:29:43.780Z,2.5
2017-02-01T04:30:24.912Z,2.55
2017-02-01T04:31:05.400Z,2.43
2017-02-01T04:31:45.804Z,2.5
2017-02-01T04:32:26.473Z,2.5
2017-02-01T04:33:07.463Z,2.5
2017-02-01T04:33:47.919Z,2.55
2017-02-01T04:34:28.401Z,2.55
2017-02-01T04:35:08.895Z,2.5
2017-02-01T04:35:49.331Z,2.41
2017-02-01T04:36:29.808Z,2.5
2017-02-01T04:37:10.288Z,2.54
2017-02-01T04:37:50.713Z,2.44
2017-02-01T04:38:31.157Z,2.52
2017-02-01T04:39:11.615Z,2.51
2017-02-01T04:39:52.108Z,2.43
2017-02-01T04:40:32.575Z,2.47
2017-02-01T04:41:13.016Z,2.55
2017-02-01T04:45:00.036Z,2.54
2017-02-01T04:45:40.836Z,2.37
2017-02-01T04:46:21.300Z,2.37
2017-02-01T04:47:01.763Z,2.4
2017-02-01T04:47:42.291Z,2.4
2017-02-01T04:48:22.757Z,2.4
2017-02-01T04:49:03.217Z,2.39
2017-02-01T04:49:43.721Z,2.46
2017-02-01T04:50:24.196Z,2.43
2017-02-01T04:51:04.683Z,2.37
2017-02-01T04:51:45.173Z,2.37
2017-02-01T04:52:25.619Z,2.36
2017-02-01T04:53:06.068Z,2.4
2017-02-01T04:53:46.520Z,2.43
2017-02-01T04:54:26.951Z,2.46
2017-02-01T04:55:07.423Z,2.39
2017-02-01T04:55:47.892Z,2.4
2017-02-01T04:56:28.383Z,2.39
2017-02-01T04:57:08.876Z,2.4
2017-02-01T04:57:49.355Z,2.41
2017-02-01T04:58:29.842Z,2.34
2017-02-01T04:59:10.328Z,2.33
2017-02-01T04:59:50.817Z,2.4
2017-02-01T05:00:31.307Z,2.37
2017-02-01T05:01:11.803Z,2.33
2017-02-01T05:01:52.259Z,2.33
2017-02-01T05:02:32.735Z,2.36
2017-02-01T05:03:13.207Z,2.3
2017-02-01T05:03:53.668Z,2.3
2017-02-01T05:04:34.136Z,2.32
2017-02-01T05:05:14.616Z,2.28
2017-02-01T05:05:55.090Z,2.32
2017-02-01T05:06:35.586Z,2.26
2017-02-01T05:07:16.043Z,2.37
2017-02-01T05:07:56.520Z,2.33
2017-02-01T05:08:37.043Z,2.26
2017-02-01T05:09:17.488Z,2.28
2017-02-01T05:09:57.949Z,2.37
2017-02-01T05:10:38.438Z,2.43
2017-02-01T05:11:18.870Z,2.33
2017-02-01T05:11:59.404Z,2.3
2017-02-01T05:12:39.806Z,2.39
2017-02-01T05:13:20.274Z,2.41
2017-02-01T05:14:00.705Z,2.41
2017-02-01T05:14:41.162Z,2.44
2017-02-01T05:15:21.626Z,2.4
2017-02-01T05:16:02.123Z,2.34
2017-02-01T05:16:42.568Z,2.39
2017-02-01T05:17:23.013Z,2.43
2017-02-01T05:19:15.633Z,2.41
2017-02-01T05:19:56.095Z,2.39
2017-02-01T05:20:36.580Z,2.44
2017-02-01T05:21:17.054Z,2.44
2017-02-01T05:21:57.500Z,2.37
2017-02-01T05:22:37.969Z,2.44
2017-02-01T05:23:18.434Z,2.39
2017-02-01T05:23:58.920Z,2.36
2017-02-01T05:24:39.399Z,2.4
2017-02-01T05:25:19.884Z,2.44
2017-02-01T05:26:00.373Z,2.39
2017-02-01T05:26:40.831Z,2.37
2017-02-01T05:27:21.312Z,2.47
2017-02-01T05:28:01.794Z,2.4
2017-02-01T05:29:59.533Z,2.47
2017-02-01T05:30:40.017Z,2.41
2017-02-01T05:31:20.488Z,2.47
2017-02-01T05:32:00.965Z,2.39
2017-02-01T05:32:41.457Z,2.43
2017-02-01T05:33:21.913Z,2.46
2017-02-01T05:34:02.353Z,2.41
2017-02-01T05:34:42.808Z,2.41
2017-02-01T05:35:23.297Z,2.47
2017-02-01T05:37:15.999Z,2.5
2017-02-01T05:37:56.420Z,2.55
2017-02-01T05:38:36.910Z,2.41
2017-02-01T05:39:17.373Z,2.55
2017-02-01T05:41:30.155Z,2.59
2017-02-01T05:42:10.638Z,2.59
2017-02-01T05:42:51.113Z,2.47
2017-02-01T05:43:31.632Z,2.57
2017-02-01T05:44:12.053Z,2.58
2017-02-01T05:44:52.531Z,2.51
2017-02-01T05:45:33.002Z,2.51
2017-02-01T05:46:13.482Z,2.55
2017-02-01T05:46:53.937Z,2.51
2017-02-01T05:47:34.402Z,2.61
2017-02-01T05:48:14.863Z,2.39
2017-02-01T05:48:55.325Z,2.46
2017-02-01T05:49:35.788Z,2.57
2017-02-01T05:50:16.225Z,2.39
2017-02-01T05:50:56.686Z,2.58
2017-02-01T05:51:37.133Z,2.46
2017-02-01T05:52:17.580Z,2.44
2017-02-01T05:52:58.058Z,2.44
2017-02-01T05:53:38.534Z,2.46
2017-02-01T05:54:18.977Z,2.51
2017-02-01T05:54:59.462Z,2.5
2017-02-01T05:55:39.893Z,2.5
2017-02-01T05:56:20.348Z,2.5
2017-02-01T05:57:00.826Z,2.5
2017-02-01T05:57:41.276Z,2.52
2017-02-01T05:58:21.705Z,2.37
2017-02-01T05:59:02.151Z,2.52
2017-02-01T05:59:42.605Z,2.5
2017-02-01T06:00:23.078Z,2.51
2017-02-01T06:01:03.510Z,2.52
2017-02-01T06:01:43.964Z,2.5
2017-02-01T06:02:24.410Z,2.52
2017-02-01T06:03:04.876Z,2.51
2017-02-01T06:03:45.310Z,2.41
2017-02-01T06:04:25.766Z,2.51
2017-02-01T06:05:06.230Z,2.5
2017-02-01T06:05:46.678Z,2.51
2017-02-01T06:06:27.149Z,2.44
2017-02-01T06:07:07.631Z,2.54
2017-02-01T06:07:48.108Z,2.51
2017-02-01T06:08:29.538Z,2.54
2017-02-01T06:09:10.012Z,2.37
2017-02-01T06:11:23.807Z,2.44
2017-02-01T06:12:04.302Z,2.57
2017-02-01T06:12:44.767Z,2.36
2017-02-01T06:13:25.272Z,2.52
2017-02-01T06:14:05.707Z,2.44
2017-02-01T06:14:46.176Z,2.5
2017-02-01T06:15:26.621Z,2.54
2017-02-01T06:16:07.093Z,2.4
2017-02-01T06:16:47.542Z,2.55
2017-02-01T06:17:27.993Z,2.47
2017-02-01T06:18:08.442Z,2.59
2017-02-01T06:18:48.900Z,2.61
2017-02-01T06:19:29.369Z,2.47
2017-02-01T06:20:09.805Z,2.44
2017-02-01T06:20:50.258Z,2.47
2017-02-01T06:21:30.682Z,2.5
2017-02-01T06:22:11.158Z,2.58
2017-02-01T06:22:51.609Z,2.51
2017-02-01T06:23:32.088Z,2.44
2017-02-01T06:24:12.533Z,2.52
2017-02-01T06:24:53.022Z,2.52
2017-02-01T06:25:33.495Z,2.52
2017-02-01T06:26:13.986Z,2.57
2017-02-01T06:26:54.482Z,2.52
2017-02-01T06:27:34.908Z,2.55
2017-02-01T06:28:15.435Z,2.5
2017-02-01T06:28:55.866Z,2.47
2017-02-01T06:29:36.299Z,2.61
2017-02-01T06:30:16.759Z,2.47
2017-02-01T06:30:57.220Z,2.51
2017-02-01T06:31:37.695Z,2.55
2017-02-01T06:32:18.167Z,2.46
2017-02-01T06:32:58.585Z,2.51
2017-02-01T06:33:39.045Z,2.54
2017-02-01T06:34:19.489Z,2.54
2017-02-01T06:34:59.960Z,2.54
2017-02-01T06:35:40.434Z,2.52
2017-02-01T06:36:20.885Z,2.52
2017-02-01T06:37:01.330Z,2.5
2017-02-01T06:37:41.831Z,2.5
2017-02-01T06:38:22.305Z,2.5
2017-02-01T06:39:02.768Z,2.37
2017-02-01T06:39:43.226Z,2.4
2017-02-01T06:40:23.675Z,2.39
2017-02-01T06:41:04.141Z,2.44
2017-02-01T06:41:44.601Z,2.39
2017-02-01T06:42:25.060Z,2.4
2017-02-01T06:43:05.511Z,2.4
2017-02-01T06:43:45.972Z,2.4
2017-02-01T06:44:26.435Z,2.36
2017-02-01T06:45:06.895Z,2.39
2017-02-01T06:45:47.352Z,2.4
2017-02-01T06:46:27.801Z,2.4
2017-02-01T06:47:08.246Z,2.34
2017-02-01T06:47:48.747Z,2.26
2017-02-01T06:48:29.216Z,2.39
2017-02-01T06:49:09.681Z,2.39
2017-02-01T06:49:50.157Z,2.37
2017-02-01T06:50:30.650Z,2.33
2017-02-01T06:51:11.091Z,2.4
2017-02-01T06:51:51.553Z,2.37
2017-02-01T06:52:31.993Z,2.37
2017-02-01T06:53:12.421Z,2.39
2017-02-01T06:53:52.916Z,2.39
2017-02-01T06:54:33.362Z,2.43
2017-02-01T06:55:13.851Z,2.36
2017-02-01T06:55:54.340Z,2.34
2017-02-01T06:56:34.821Z,2.3
2017-02-01T06:57:15.313Z,2.41
2017-02-01T06:57:55.790Z,2.33
2017-02-01T06:58:36.241Z,2.33
2017-02-01T06:59:16.720Z,2.37
2017-02-01T06:59:57.155Z,2.34
2017-02-01T07:00:37.655Z,2.36
2017-02-01T07:01:18.137Z,2.36
2017-02-01T07:01:58.610Z,2.36
2017-02-01T07:02:39.089Z,2.26
2017-02-01T07:03:19.538Z,2.26
2017-02-01T07:03:59.981Z,2.36
2017-02-01T07:04:40.466Z,2.3
2017-02-01T07:05:20.904Z,2.28
2017-02-01T07:07:13.737Z,2.37
2017-02-01T07:07:54.181Z,2.26
2017-02-01T07:08:34.676Z,2.37
2017-02-01T07:09:15.116Z,2.26
2017-02-01T07:09:55.590Z,2.39
2017-02-01T07:10:36.072Z,2.4
2017-02-01T07:11:16.531Z,2.4
2017-02-01T07:11:56.971Z,2.36
2017-02-01T07:12:37.431Z,2.37
2017-02-01T07:14:50.532Z,2.4
2017-02-01T07:15:31.004Z,2.41
2017-02-01T07:16:11.476Z,2.36
2017-02-01T07:16:51.967Z,2.41
2017-02-01T07:17:32.457Z,2.41
2017-02-01T07:18:12.948Z,2.4
2017-02-01T07:20:11.234Z,2.44
2017-02-01T07:20:51.726Z,2.41
2017-02-01T07:21:32.208Z,2.41
2017-02-01T07:22:12.694Z,2.41
2017-02-01T07:22:53.176Z,2.43
2017-02-01T07:23:33.627Z,2.43
2017-02-01T07:24:14.100Z,2.41
2017-02-01T07:24:54.534Z,2.4
2017-02-01T07:25:35.002Z,2.41
2017-02-01T07:26:15.482Z,2.4
2017-02-01T07:26:55.900Z,2.4
2017-02-01T07:27:36.354Z,2.39
2017-02-01T07:28:16.799Z,2.52
2017-02-01T07:28:57.271Z,2.41
2017-02-01T07:29:37.730Z,2.5
2017-02-01T07:30:18.154Z,2.4
2017-02-01T07:30:58.584Z,2.5
2017-02-01T07:31:39.082Z,2.51
2017-02-01T07:32:19.585Z,2.4
2017-02-01T07:33:00.055Z,2.52
2017-02-01T07:33:40.530Z,2.57
2017-02-01T07:34:21.008Z,2.37
2017-02-01T07:35:01.461Z,2.54
2017-02-01T07:35:41.899Z,2.54
2017-02-01T07:37:54.646Z,2.52
2017-02-01T07:38:35.139Z,2.52
2017-02-01T07:39:15.662Z,2.51
2017-02-01T07:39:56.083Z,2.57
2017-02-01T07:40:36.539Z,2.47
2017-02-01T07:41:17.023Z,2.55
2017-02-01T07:41:57.467Z,2.5
2017-02-01T07:42:37.909Z,2.58
2017-02-01T07:43:18.370Z,2.61
2017-02-01T07:43:58.789Z,2.57
2017-02-01T07:44:39.268Z,2.64
2017-02-01T07:45:19.735Z,2.64
2017-02-01T07:46:00.172Z,2.68
2017-02-01T07:46:40.637Z,2.69
2017-02-01T07:47:21.121Z,2.65
2017-02-01T07:48:01.531Z,2.68
2017-02-01T07:48:42.016Z,2.7
2017-02-01T07:49:22.476Z,2.79
2017-02-01T07:50:02.914Z,2.79
2017-02-01T07:50:43.403Z,2.82
2017-02-01T07:52:56.142Z,2.85
2017-02-01T07:53:36.604Z,2.72
2017-02-01T07:54:17.094Z,2.8
2017-02-01T07:54:57.557Z,2.75
2017-02-01T07:55:38.042Z,2.76
2017-02-01T07:56:18.512Z,2.75
2017-02-01T07:56:58.971Z,2.8
2017-02-01T07:57:39.419Z,2.8
2017-02-01T07:58:19.908Z,2.75
2017-02-01T07:59:00.330Z,2.87
2017-02-01T07:59:40.797Z,2.9
2017-02-01T08:00:21.239Z,2.94
2017-02-01T08:01:01.676Z,2.85
2017-02-01T08:01:42.132Z,2.95
2017-02-01T08:02:22.599Z,2.97
2017-02-01T08:03:03.072Z,2.97
2017-02-01T08:03:43.555Z,3.01
2017-02-01T08:04:24.045Z,2.98
2017-02-01T08:05:04.490Z,3.15
2017-02-01T08:05:44.968Z,3.08
2017-02-01T08:06:25.456Z,3.03
2017-02-01T08:07:05.933Z,3.13
2017-02-01T08:07:46.416Z,3.12
2017-02-01T08:08:26.891Z,3.12
2017-02-01T08:09:07.385Z,3.12
2017-02-01T08:09:47.867Z,3.12
2017-02-01T08:10:28.359Z,3.13
2017-02-01T08:11:08.855Z,3.11
2017-02-01T08:11:49.298Z,3.09
2017-02-01T08:12:29.782Z,3.16
2017-02-01T08:13:10.259Z,3.13
2017-02-01T08:13:50.719Z,3.19
2017-02-01T08:14:31.216Z,3.09
2017-02-01T08:15:11.708Z,3.13
2017-02-01T08:15:52.174Z,3.27
2017-02-01T08:16:32.670Z,3.29
2017-02-01T08:17:13.104Z,3.24
2017-02-01T08:17:53.576Z,3.34
2017-02-01T08:18:34.064Z,3.31
2017-02-01T08:19:14.547Z,3.3
2017-02-01T08:19:55.035Z,3.27
2017-02-01T08:20:35.519Z,3.24
2017-02-01T08:21:16.016Z,3.36
2017-02-01T08:21:56.461Z,3.26
2017-02-01T08:22:36.906Z,3.3
2017-02-01T08:23:17.363Z,3.26
2017-02-01T08:23:57.860Z,3.27
2017-02-01T08:24:38.341Z,3.33
2017-02-01T08:25:18.814Z,3.21
2017-02-01T08:25:59.301Z,3.27
2017-02-01T08:26:39.771Z,3.33
2017-02-01T08:27:20.221Z,3.31
2017-02-01T08:28:00.664Z,3.34
2017-02-01T08:28:41.153Z,3.34
2017-02-01T08:29:21.580Z,3.22
2017-02-01T08:30:02.028Z,3.31
2017-02-01T08:30:42.484Z,3.3
2017-02-01T08:31:22.938Z,3.26
2017-02-01T08:33:20.683Z,3.21
2017-02-01T08:34:01.157Z,3.3
2017-02-01T08:34:41.646Z,3.3
2017-02-01T08:35:22.107Z,3.27
2017-02-01T08:36:02.619Z,3.24
2017-02-01T08:36:43.073Z,3.27
2017-02-01T08:37:23.533Z,3.26
2017-02-01T08:38:04.002Z,3.33
2017-02-01T08:38:44.478Z,3.36
2017-02-01T08:39:24.957Z,3.49
2017-02-01T08:40:05.434Z,3.41
2017-02-01T08:40:45.933Z,3.37
2017-02-01T08:41:26.406Z,3.46
2017-02-01T08:42:06.896Z,3.46
2017-02-01T08:42:47.377Z,3.46
2017-02-01T08:43:27.861Z,3.45
2017-02-01T08:44:08.334Z,3.55
2017-02-01T08:44:48.804Z,3.53
2017-02-01T08:45:29.290Z,3.64
2017-02-01T08:46:09.765Z,3.61
2017-02-01T08:46:50.251Z,3.61
2017-02-01T08:47:30.754Z,3.61
2017-02-01T08:48:11.200Z,3.63
2017-02-01T08:48:51.658Z,3.67
2017-02-01T08:49:32.136Z,3.64
2017-02-01T08:50:12.599Z,3.73
2017-02-01T08:50:53.073Z,3.68
2017-02-01T08:51:33.523Z,3.84
2017-02-01T08:53:11.734Z,3.84
2017-02-01T08:53:52.217Z,3.96
2017-02-01T08:54:32.696Z,3.84
2017-02-01T08:55:13.183Z,3.86
2017-02-01T08:55:53.665Z,4
2017-02-01T08:56:34.148Z,4.06
2017-02-01T08:57:14.651Z,4.1
2017-02-01T08:57:55.103Z,4.13
2017-02-01T08:58:35.586Z,4.16
2017-02-01T08:59:16.083Z,4.27
2017-02-01T08:59:56.564Z,4.2
2017-02-01T09:00:37.055Z,4.27
2017-02-01T09:01:17.515Z,4.34
2017-02-01T09:01:58.000Z,4.39
2017-02-01T09:02:38.462Z,4.42
2017-02-01T09:03:18.938Z,4.5
2017-02-01T09:03:59.394Z,4.53
2017-02-01T09:04:39.848Z,4.64
2017-02-01T09:05:20.317Z,4.66
2017-02-01T09:06:00.787Z,4.68
2017-02-01T09:06:41.302Z,4.76
2017-02-01T09:07:21.765Z,4.92
2017-02-01T09:08:02.261Z,4.9
2017-02-01T09:08:42.738Z,4.9
2017-02-01T09:09:23.211Z,5
2017-02-01T09:10:03.700Z,4.98
2017-02-01T09:10:44.155Z,5.13
2017-02-01T09:11:24.615Z,5.13
2017-02-01T09:12:05.095Z,5.18
2017-02-01T09:12:45.568Z,5.26
2017-02-01T09:13:26.027Z,5.29
2017-02-01T09:14:06.543Z,5.37
2017-02-01T09:14:47.008Z,5.49
2017-02-01T09:15:27.489Z,5.4
2017-02-01T09:16:07.979Z,5.56
2017-02-01T09:16:48.424Z,5.56
2017-02-01T09:17:28.908Z,5.59
2017-02-01T09:18:09.381Z,5.64
2017-02-01T09:18:49.859Z,5.73
2017-02-01T09:19:30.345Z,5.7
2017-02-01T09:20:10.816Z,5.69
2017-02-01T09:20:51.277Z,5.74
2017-02-01T09:21:31.743Z,5.88
2017-02-01T09:22:12.247Z,5.81
2017-02-01T09:22:52.696Z,5.8
2017-02-01T09:23:33.118Z,5.9
2017-02-01T09:24:13.572Z,5.87
2017-02-01T09:24:54.086Z,5.9
2017-02-01T09:25:34.516Z,5.92